BARBERL weather

Barbers Lake Field
Georgetown, Arkansas, United States

Public forecast

Using degrees Fahrenheit for public forecast. Weather courtesy of forecast.io.

METAR (pilot weather report)

Closest report is Searcy Municipal Airport, 10.5 nm (19.4 km) WNW. Retrieved 2019/07/16 06:56 UTC (52 minutes ago):

KSRC 160656Z AUTO 21004KT 10SM BKN036 OVC043 23/23 A2992 RMK AO2 SLP130 T02330233

TAF (pilot weather forecast)

Closest forecast is Little Rock Air Force Base, 33.7 nm (62.3 km) WSW. Retrieved 2019/07/16 07:00 UTC (48 minutes ago):

TAF KLRF 160700Z 1607/1713 VRB06KT 9999 BKN020 OVC050 QNH2991INS BECMG 1608/1609 VRB06KT 9999 OVC014 QNH2991INS BECMG 1609/1610 20009KT 8000 -SHRA OVC010 QNH2992INS TEMPO 1611/1615 VRB20G25KT 8000 -TSRA BKN015CB OVC020 BECMG 1618/1619 21010G15KT 9999 NSW SCT015 BKN040 QNH2989INS BECMG 1700/1701 21012KT 9999 SCT050 QNH2989INS BECMG 1706/1707 21006KT 9999 SCT020 WS020/23035KT QNH2993INS TX30/1623Z TN23/1607Z